Terminal Aerodrome Forecast
Issued by NWS

Current Version | Previous Version | Graphics & Text | Print | Product List | Glossary On
Versions: 1 2 3 4 5 6 7 8 9 10 11 12 13 14 15 16 17 18 19 20 21 22 23 24 25 26 27 28 29 30 31 32 33 34 35 36 37 38
000
FTUS41 KRNK 150748 AAA
TAFLWB
TAF AMD
KLWB 150748Z 1508/1606 06007KT 5SM BR BKN010 OVC040
      TEMPO 1508/1512 5SM -DZ BR OVC007
     FM151300 10004KT P6SM SCT010 OVC020
     FM151800 10003KT P6SM -RA OVC015
     FM160000 08003KT P6SM OVC040=

USA.gov is the U.S. government's official web portal to all federal, state and local government web resources and services.